Time;durP1;ratioP1;P1;durP2;ratioP2;P2;SDS_P1;SDS_P2;PMS_P1;PMS_P2;Temp;Humidity;BMP_temperature;BMP_pressure;BME280_temperature;BME280_humidity;BME280_pressure;Samples;Min_cycle;Max_cycle;Signal;HPM_P1;HPM_P2
2023/02/20 00:01:55;;;;;;;4.82;2.38;;;;;;;10.52;59.91;98281.81;4945649;28;20292;-78
2023/02/20 00:04:21;;;;;;;5.38;2.03;;;;;;;10.50;59.64;98283.81;4931578;28;20305;-77
2023/02/20 00:06:46;;;;;;;2.90;2.00;;;;;;;10.38;59.95;98282.94;4931060;28;20185;-78
2023/02/20 00:09:12;;;;;;;6.90;2.20;;;;;;;10.36;59.92;98298.78;4942599;28;20189;-78
2023/02/20 00:11:37;;;;;;;3.72;1.85;;;;;;;10.33;60.00;98306.22;4954970;28;20263;-77
2023/02/20 00:14:03;;;;;;;6.05;2.40;;;;;;;10.34;60.04;98302.63;4947630;28;20175;-78
2023/02/20 00:16:28;;;;;;;3.33;1.83;;;;;;;10.20;59.76;98305.31;4949173;28;20181;-78
2023/02/20 00:18:53;;;;;;;6.18;2.30;;;;;;;10.17;59.91;98305.72;4921789;28;20256;-78
2023/02/20 00:21:19;;;;;;;7.22;2.35;;;;;;;10.12;60.00;98310.78;4944113;28;20339;-78
2023/02/20 00:23:44;;;;;;;3.38;2.03;;;;;;;10.03;60.04;98307.63;4948721;28;20215;-78
2023/02/20 00:26:11;;;;;;;6.82;2.55;;;;;;;10.00;60.44;98308.06;4946703;28;20198;-77
2023/02/20 00:28:38;;;;;;;6.38;2.20;;;;;;;10.01;60.89;98304.47;4949620;28;20222;-77
2023/02/20 00:31:05;;;;;;;6.20;2.83;;;;;;;9.99;61.05;98298.69;4933306;28;20259;-77
2023/02/20 00:33:30;;;;;;;4.03;2.50;;;;;;;9.97;61.34;98295.47;4946740;28;20258;-78
2023/02/20 00:35:55;;;;;;;6.47;2.85;;;;;;;9.94;61.36;98291.50;4946230;28;20294;-77
2023/02/20 00:38:21;;;;;;;6.65;3.28;;;;;;;9.93;61.09;98292.50;4948629;28;20429;-77
2023/02/20 00:40:46;;;;;;;5.82;2.85;;;;;;;9.84;61.89;98293.00;4949771;28;20273;-77
2023/02/20 00:43:12;;;;;;;6.93;2.60;;;;;;;9.95;61.88;98297.50;4946010;28;20168;-77
2023/02/20 00:45:37;;;;;;;7.25;2.40;;;;;;;9.86;62.07;98289.16;4951183;28;20183;-78
2023/02/20 00:48:03;;;;;;;7.35;2.85;;;;;;;9.71;62.57;98288.66;4918512;28;20638;-77
2023/02/20 00:50:28;;;;;;;6.30;2.85;;;;;;;9.80;62.20;98276.19;4950793;28;20160;-78
2023/02/20 00:52:53;;;;;;;6.07;2.28;;;;;;;9.82;61.99;98275.00;4932848;28;20225;-77
2023/02/20 00:55:19;;;;;;;7.05;3.03;;;;;;;9.87;62.03;98276.94;4948592;28;20506;-77
2023/02/20 00:57:44;;;;;;;6.35;2.63;;;;;;;9.72;62.13;98269.47;4945833;28;20263;-77
2023/02/20 01:00:17;;;;;;;5.68;3.00;;;;;;;9.93;61.86;98289.09;4921866;28;20197;-77
2023/02/20 01:02:42;;;;;;;6.55;2.63;;;;;;;9.77;61.96;98276.63;4927083;28;20233;-77
2023/02/20 01:05:08;;;;;;;6.38;2.85;;;;;;;9.72;62.27;98280.66;4932882;28;20293;-77
2023/02/20 01:07:33;;;;;;;7.03;2.45;;;;;;;9.77;62.25;98290.44;4933255;28;20412;-78
2023/02/20 01:09:58;;;;;;;7.43;2.65;;;;;;;9.78;62.60;98299.03;4916859;28;20364;-78
2023/02/20 01:12:23;;;;;;;4.50;2.60;;;;;;;9.63;62.98;98291.50;4931547;28;20802;-77
2023/02/20 01:14:49;;;;;;;5.30;3.47;;;;;;;9.76;62.57;98296.63;4947972;28;20618;-77
2023/02/20 01:17:14;;;;;;;5.70;2.92;;;;;;;9.79;62.23;98280.59;4945854;28;20743;-78
2023/02/20 01:19:41;;;;;;;7.05;3.20;;;;;;;9.83;61.97;98292.16;4928065;28;20627;-77
2023/02/20 01:22:07;;;;;;;6.57;2.88;;;;;;;9.65;62.38;98272.09;4964955;28;20207;-77
2023/02/20 01:24:33;;;;;;;6.07;3.33;;;;;;;9.57;63.34;98267.94;4963303;28;20241;-77
2023/02/20 01:26:58;;;;;;;6.93;3.47;;;;;;;9.74;62.62;98275.25;4948175;28;20279;-77
2023/02/20 01:29:23;;;;;;;7.70;3.22;;;;;;;9.64;62.84;98272.31;4953433;28;20158;-77
2023/02/20 01:31:49;;;;;;;7.20;2.80;;;;;;;9.56;63.58;98273.34;4929006;28;20183;-77
2023/02/20 01:34:15;;;;;;;8.65;3.70;;;;;;;9.53;63.49;98261.59;4940385;28;20198;-77
2023/02/20 01:36:46;;;;;;;6.40;3.33;;;;;;;9.67;63.73;98266.69;4946108;28;20222;-77
2023/02/20 01:39:11;;;;;;;6.45;2.92;;;;;;;9.57;63.32;98252.34;4936477;28;20195;-77
2023/02/20 01:41:36;;;;;;;8.25;3.78;;;;;;;9.57;63.45;98256.75;4948410;28;20643;-78
2023/02/20 01:44:02;;;;;;;7.05;3.53;;;;;;;9.56;63.61;98258.56;4948832;28;20165;-78
2023/02/20 01:46:27;;;;;;;6.32;3.55;;;;;;;9.66;62.87;98259.91;4960608;28;20213;-78
2023/02/20 01:49:05;;;;;;;7.18;3.05;;;;;;;9.75;63.12;98264.63;4951543;28;20200;-77
2023/02/20 01:51:33;;;;;;;8.30;3.53;;;;;;;9.65;63.38;98268.72;4945288;28;20684;-77
2023/02/20 01:53:58;;;;;;;6.15;4.10;;;;;;;9.60;63.07;98261.53;4940801;28;20105;-77
2023/02/20 01:56:24;;;;;;;6.60;4.00;;;;;;;9.54;63.05;98258.00;4962595;28;20198;-77
2023/02/20 01:58:50;;;;;;;6.93;3.20;;;;;;;9.55;63.10;98256.19;4944343;28;20191;-78
2023/02/20 02:01:15;;;;;;;6.57;3.13;;;;;;;9.60;63.23;98265.97;4947263;28;20657;-78
2023/02/20 02:03:43;;;;;;;8.07;3.40;;;;;;;9.61;62.47;98265.72;4951979;23;20196;-76
2023/02/20 02:06:11;;;;;;;7.40;3.80;;;;;;;9.62;62.75;98254.31;4911749;28;20267;-75
2023/02/20 02:08:37;;;;;;;8.45;3.72;;;;;;;9.57;63.41;98246.34;4909935;28;20292;-75
2023/02/20 02:11:06;;;;;;;8.25;3.53;;;;;;;9.61;63.37;98254.53;4902115;28;20180;-76
2023/02/20 02:13:33;;;;;;;8.25;3.80;;;;;;;9.59;63.25;98248.75;4903869;28;20308;-75
2023/02/20 02:16:26;;;;;;;6.88;3.30;;;;;;;9.69;62.84;98243.88;4905966;28;20327;-76
2023/02/20 02:18:59;;;;;;;11.23;3.92;;;;;;;9.68;62.57;98243.09;4916214;28;20263;-75
2023/02/20 02:21:34;;;;;;;6.40;3.20;;;;;;;9.68;62.77;98247.47;4904321;28;20388;-75
2023/02/20 02:24:27;;;;;;;6.60;4.28;;;;;;;9.61;62.79;98237.13;4911330;28;20275;-75
2023/02/20 02:27:04;;;;;;;6.72;3.78;;;;;;;9.77;62.49;98250.59;4886600;28;20207;-75
2023/02/20 02:29:36;;;;;;;4.72;3.03;;;;;;;9.66;62.60;98242.47;4911040;28;20253;-75
2023/02/20 02:32:24;;;;;;;5.78;2.75;;;;;;;9.65;62.42;98237.50;4906679;28;20320;-74
2023/02/20 02:35:17;;;;;;;6.80;3.25;;;;;;;9.70;62.75;98240.28;4886511;28;20655;-75
2023/02/20 02:38:13;;;;;;;9.82;3.90;;;;;;;9.59;62.86;98243.56;4900606;28;20201;-75
2023/02/20 02:41:23;;;;;;;9.48;3.72;;;;;;;9.65;62.54;98250.53;4897917;28;20174;-75
2023/02/20 02:44:17;;;;;;;9.23;3.88;;;;;;;9.80;62.20;98251.00;4889149;28;20669;-75
2023/02/20 02:46:48;;;;;;;9.80;4.03;;;;;;;9.70;62.11;98246.28;4882747;28;20197;-75
2023/02/20 02:49:28;;;;;;;8.10;3.42;;;;;;;9.61;61.94;98228.53;4900121;28;20271;-75
2023/02/20 02:51:54;;;;;;;12.18;4.15;;;;;;;9.55;61.87;98228.38;4906775;28;20290;-75
2023/02/20 02:54:27;;;;;;;7.20;3.88;;;;;;;9.57;62.13;98225.56;4908072;28;20613;-75
2023/02/20 02:57:23;;;;;;;6.00;3.60;;;;;;;9.77;61.97;98229.78;4902341;28;20762;-75
2023/02/20 02:59:59;;;;;;;9.82;4.07;;;;;;;9.69;62.01;98228.28;4873967;28;20187;-75
2023/02/20 03:02:29;;;;;;;7.07;3.08;;;;;;;9.71;61.89;98221.06;4907609;28;20327;-76
2023/02/20 03:04:56;;;;;;;7.45;3.63;;;;;;;9.72;61.92;98222.66;4893522;28;20209;-75
2023/02/20 03:07:22;;;;;;;8.10;3.88;;;;;;;9.70;61.87;98219.47;4903259;28;20280;-75
2023/02/20 03:10:02;;;;;;;7.22;4.07;;;;;;;9.64;61.67;98212.50;4881395;28;20671;-76
2023/02/20 03:12:28;;;;;;;6.20;3.90;;;;;;;9.56;62.67;98216.97;4887185;28;20388;-75
2023/02/20 03:17:59;;;;;;;13.35;4.28;;;;;;;9.66;62.44;98206.06;4900498;28;20345;-75
2023/02/20 03:20:25;;;;;;;7.30;3.92;;;;;;;9.37;63.33;98216.09;4888338;28;20281;-76
2023/02/20 03:23:00;;;;;;;9.13;3.90;;;;;;;9.63;62.40;98214.31;4898843;28;20408;-74
2023/02/20 03:25:51;;;;;;;8.07;3.95;;;;;;;9.30;63.30;98207.53;4901120;28;20285;-76
2023/02/20 03:28:22;;;;;;;8.48;4.38;;;;;;;9.35;63.15;98206.91;4906105;28;20213;-75
2023/02/20 03:30:52;;;;;;;7.35;3.80;;;;;;;9.21;63.88;98208.03;4903254;28;20272;-75
2023/02/20 03:44:37;;;;;;;11.80;4.57;;;;;;;9.17;63.25;98205.03;4899554;28;20693;-76
2023/02/20 03:47:03;;;;;;;8.95;4.10;;;;;;;9.29;63.22;98210.38;4903125;28;20136;-75
2023/02/20 03:49:34;;;;;;;8.38;4.68;;;;;;;9.23;63.14;98198.19;4887576;28;20202;-75
2023/02/20 03:51:59;;;;;;;10.73;4.97;;;;;;;9.11;63.87;98211.84;4902044;28;20201;-75
2023/02/20 03:54:27;;;;;;;9.32;4.40;;;;;;;9.32;63.20;98212.53;4885678;28;20197;-75
2023/02/20 03:56:56;;;;;;;9.05;4.70;;;;;;;9.30;63.04;98207.53;4900415;28;20736;-75
2023/02/20 03:59:28;;;;;;;12.63;4.72;;;;;;;9.23;63.19;98206.00;4884287;28;20038;-76
2023/02/20 04:01:57;;;;;;;8.30;4.70;;;;;;;9.37;62.94;98207.50;4909725;28;20034;-75
2023/02/20 04:04:28;;;;;;;8.27;5.25;;;;;;;9.43;62.15;98208.47;4881942;28;20213;-75
2023/02/20 04:06:54;;;;;;;11.75;4.75;;;;;;;9.22;62.98;98204.41;4906340;28;20116;-75
2023/02/20 04:09:26;;;;;;;9.10;4.35;;;;;;;9.44;62.80;98215.25;4922127;28;20895;-76
2023/02/20 04:11:57;;;;;;;9.63;4.60;;;;;;;9.16;63.44;98211.22;4923348;28;20383;-76
2023/02/20 04:14:24;;;;;;;9.20;5.35;;;;;;;9.18;63.17;98212.63;4889750;28;20271;-76
2023/02/20 04:16:54;;;;;;;12.13;5.32;;;;;;;9.36;63.62;98216.31;4886285;28;20282;-75
2023/02/20 04:19:20;;;;;;;11.50;4.50;;;;;;;9.17;63.39;98216.22;4889043;28;20236;-76
2023/02/20 04:21:51;;;;;;;11.90;4.70;;;;;;;9.06;64.43;98219.47;4908391;28;20295;-75
2023/02/20 04:24:37;;;;;;;10.73;6.10;;;;;;;9.17;64.07;98211.03;4890101;28;20158;-75
2023/02/20 04:27:03;;;;;;;11.00;5.05;;;;;;;9.13;63.87;98215.06;4872253;28;20561;-75
2023/02/20 04:29:28;;;;;;;8.32;5.20;;;;;;;9.19;63.46;98206.41;4891525;28;20138;-76
2023/02/20 04:31:53;;;;;;;10.45;4.78;;;;;;;9.04;63.39;98216.28;4906833;28;20288;-76
2023/02/20 04:34:19;;;;;;;9.50;4.95;;;;;;;9.08;63.80;98219.28;4905016;28;20284;-75
2023/02/20 04:36:44;;;;;;;9.02;4.30;;;;;;;9.04;63.29;98213.69;4902435;28;20261;-75
2023/02/20 04:39:09;;;;;;;8.85;4.85;;;;;;;9.02;63.49;98222.72;4916915;28;20354;-76
2023/02/20 04:41:35;;;;;;;10.35;5.00;;;;;;;8.58;65.96;98228.47;4889613;28;20294;-75
2023/02/20 04:46:44;;;;;;;8.90;4.63;;;;;;;9.05;63.23;98220.50;4913259;28;20520;-76
2023/02/20 04:49:09;;;;;;;11.30;4.30;;;;;;;9.17;63.61;98220.63;4902148;28;20272;-76
2023/02/20 04:51:35;;;;;;;10.30;4.78;;;;;;;9.08;63.67;98214.88;4884950;28;20206;-76
2023/02/20 04:54:00;;;;;;;8.23;4.15;;;;;;;9.00;64.40;98217.72;4903116;28;20287;-76
2023/02/20 04:56:26;;;;;;;10.40;4.72;;;;;;;8.91;64.13;98211.16;4900297;28;20297;-76
2023/02/20 04:58:51;;;;;;;9.57;4.90;;;;;;;8.99;64.17;98208.34;4881840;28;20217;-75
2023/02/20 05:01:16;;;;;;;8.55;4.43;;;;;;;9.03;64.03;98211.31;4907265;28;21785;-75
2023/02/20 05:03:42;;;;;;;9.13;4.13;;;;;;;9.07;64.21;98212.50;4910788;28;20201;-76
2023/02/20 05:06:07;;;;;;;10.77;4.28;;;;;;;9.02;63.17;98207.13;4905198;28;20205;-75
2023/02/20 05:08:32;;;;;;;8.18;4.40;;;;;;;8.97;64.34;98211.13;4887242;28;20259;-75
2023/02/20 05:10:58;;;;;;;8.73;4.18;;;;;;;8.92;64.40;98207.56;4905264;28;20241;-75
2023/02/20 05:13:23;;;;;;;11.63;4.07;;;;;;;8.96;63.66;98203.53;4873038;28;20407;-75
2023/02/20 05:15:49;;;;;;;8.98;4.15;;;;;;;8.73;65.10;98198.88;4883781;28;20377;-76
2023/02/20 05:18:23;;;;;;;7.70;4.53;;;;;;;9.22;63.68;98207.00;4889404;28;20201;-75
2023/02/20 05:23:40;;;;;;;8.50;4.85;;;;;;;9.05;63.36;98206.69;4908309;28;20213;-76
2023/02/20 05:26:11;;;;;;;13.18;5.28;;;;;;;9.04;62.91;98203.31;4905290;28;20715;-75
2023/02/20 05:28:38;;;;;;;9.70;4.55;;;;;;;9.06;63.35;98198.69;4890187;28;20209;-76
2023/02/20 05:31:04;;;;;;;9.35;4.70;;;;;;;9.13;63.08;98202.06;4904757;28;20356;-76
2023/02/20 05:33:29;;;;;;;9.85;4.45;;;;;;;9.05;62.93;98194.53;4873561;28;20249;-75
2023/02/20 05:35:55;;;;;;;10.35;4.72;;;;;;;9.10;62.64;98194.69;4906334;28;20210;-76
2023/02/20 05:38:20;;;;;;;9.82;5.70;;;;;;;9.04;62.56;98195.50;4899371;28;20268;-76
2023/02/20 05:40:45;;;;;;;11.43;5.93;;;;;;;9.11;62.99;98198.88;4900949;28;20416;-75
2023/02/20 05:43:11;;;;;;;9.25;4.75;;;;;;;9.13;63.11;98199.47;4896330;28;20327;-75
2023/02/20 05:45:36;;;;;;;9.00;4.63;;;;;;;9.05;62.90;98202.31;4901021;28;20179;-75
2023/02/20 05:48:01;;;;;;;10.98;4.88;;;;;;;9.03;62.93;98198.31;4901238;28;20194;-76
2023/02/20 05:50:27;;;;;;;10.70;5.35;;;;;;;9.00;63.02;98202.94;4865187;28;20194;-75
2023/02/20 05:52:52;;;;;;;11.15;5.05;;;;;;;8.92;62.99;98204.97;4900836;28;20089;-75
2023/02/20 05:55:17;;;;;;;9.82;5.78;;;;;;;8.79;62.85;98204.03;4876888;28;20213;-75
2023/02/20 05:57:43;;;;;;;10.35;6.07;;;;;;;8.96;63.54;98195.75;4913265;28;20284;-76
2023/02/20 06:00:09;;;;;;;11.98;6.05;;;;;;;8.74;64.23;98193.47;4902701;28;20222;-75
2023/02/20 06:02:34;;;;;;;11.27;6.03;;;;;;;8.91;63.36;98185.19;4869393;28;20194;-75
2023/02/20 06:05:00;;;;;;;10.35;5.55;;;;;;;8.74;63.75;98192.66;4884598;28;20642;-75
2023/02/20 06:07:25;;;;;;;16.33;7.15;;;;;;;8.69;64.43;98188.09;4904193;28;20248;-75
2023/02/20 06:09:50;;;;;;;10.07;6.03;;;;;;;8.77;63.39;98193.06;4905682;28;20460;-75
2023/02/20 06:12:16;;;;;;;14.77;6.20;;;;;;;8.73;63.82;98189.28;4904182;28;20193;-75
2023/02/20 06:14:41;;;;;;;10.65;5.95;;;;;;;8.94;63.74;98189.97;4897185;28;20259;-75
2023/02/20 06:17:06;;;;;;;14.05;6.70;;;;;;;8.93;62.96;98185.81;4902226;28;20655;-76
2023/02/20 06:19:32;;;;;;;10.75;5.57;;;;;;;8.94;63.47;98190.75;4903956;28;20249;-75
2023/02/20 06:22:00;;;;;;;10.88;6.35;;;;;;;8.90;63.44;98192.19;4900107;28;20191;-76
2023/02/20 06:24:26;;;;;;;11.13;6.35;;;;;;;8.85;63.46;98201.63;4886798;28;20333;-75
2023/02/20 06:26:51;;;;;;;11.55;6.28;;;;;;;8.94;62.75;98200.38;4903019;28;20302;-75
2023/02/20 06:29:17;;;;;;;12.52;6.00;;;;;;;8.74;63.63;98201.28;4885731;28;20657;-76
2023/02/20 06:31:43;;;;;;;13.10;6.80;;;;;;;8.49;64.67;98184.81;4900777;28;20418;-76
2023/02/20 06:34:09;;;;;;;14.70;7.38;;;;;;;8.70;64.04;98194.88;4892633;28;20219;-76
2023/02/20 06:36:37;;;;;;;14.05;7.88;;;;;;;8.72;64.02;98195.50;4901231;28;20266;-75
2023/02/20 06:39:04;;;;;;;15.02;7.43;;;;;;;8.61;64.43;98198.72;4893880;28;20357;-76
2023/02/20 06:41:30;;;;;;;13.75;7.43;;;;;;;8.71;64.11;98191.28;4903489;28;20248;-76
2023/02/20 06:43:55;;;;;;;14.05;7.90;;;;;;;8.69;64.74;98187.28;4885610;28;20475;-75
2023/02/20 06:46:21;;;;;;;13.30;6.90;;;;;;;8.73;64.40;98197.06;4904362;28;20312;-76
2023/02/20 06:48:52;;;;;;;13.32;6.10;;;;;;;8.80;64.27;98197.03;4903649;28;20163;-76
2023/02/20 06:51:19;;;;;;;15.57;7.25;;;;;;;8.56;64.55;98183.75;4901128;28;20356;-75
2023/02/20 06:53:45;;;;;;;13.95;7.60;;;;;;;8.75;64.16;98191.66;4904411;28;20682;-76
2023/02/20 06:56:18;;;;;;;14.30;8.15;;;;;;;8.88;63.90;98196.81;4899597;28;20292;-76
2023/02/20 06:58:48;;;;;;;13.15;6.82;;;;;;;8.85;64.02;98188.63;4896907;28;20196;-76
2023/02/20 07:01:15;;;;;;;13.68;7.35;;;;;;;8.73;64.11;98198.88;4886614;28;20274;-75
2023/02/20 07:03:40;;;;;;;16.48;7.78;;;;;;;8.89;63.96;98192.41;4898021;28;20206;-75
2023/02/20 07:06:06;;;;;;;15.63;8.10;;;;;;;8.81;63.94;98196.03;4883774;28;20386;-75
2023/02/20 07:08:31;;;;;;;15.38;7.80;;;;;;;9.00;63.97;98189.94;4885020;28;20201;-75
2023/02/20 07:10:57;;;;;;;17.13;7.63;;;;;;;9.08;63.76;98194.09;4882707;28;20221;-75
2023/02/20 07:13:22;;;;;;;14.05;7.63;;;;;;;9.06;63.72;98193.50;4888735;28;20263;-75
2023/02/20 07:15:48;;;;;;;13.15;7.45;;;;;;;8.98;63.22;98199.75;4906643;28;20316;-75
2023/02/20 07:18:13;;;;;;;15.68;6.97;;;;;;;9.07;63.22;98197.69;4863692;28;20184;-75
2023/02/20 07:20:39;;;;;;;14.50;7.22;;;;;;;9.16;63.43;98199.03;4901656;28;20188;-76
2023/02/20 07:23:04;;;;;;;15.25;6.20;;;;;;;9.26;63.27;98195.19;4896036;28;20627;-75
2023/02/20 07:25:30;;;;;;;14.02;7.20;;;;;;;9.27;63.26;98204.56;4907024;28;20287;-75
2023/02/20 07:27:55;;;;;;;19.65;7.65;;;;;;;9.19;63.51;98206.41;4868571;28;20199;-75
2023/02/20 07:30:23;;;;;;;12.05;6.55;;;;;;;9.33;63.00;98214.91;4900406;28;20721;-75
2023/02/20 07:32:49;;;;;;;13.35;6.38;;;;;;;9.35;63.18;98217.31;4899613;28;20203;-76
2023/02/20 07:35:15;;;;;;;14.02;6.93;;;;;;;9.35;63.18;98209.50;4901098;28;20291;-76
2023/02/20 07:37:40;;;;;;;14.52;7.15;;;;;;;9.42;62.77;98212.84;4907910;28;20293;-75
2023/02/20 07:40:06;;;;;;;12.52;6.85;;;;;;;9.41;63.01;98210.47;4908749;28;20355;-76
2023/02/20 07:42:31;;;;;;;10.95;6.28;;;;;;;9.42;62.72;98217.28;4906680;28;20256;-75
2023/02/20 07:44:57;;;;;;;13.07;6.20;;;;;;;9.43;63.16;98217.06;4907135;28;20311;-76
2023/02/20 07:47:22;;;;;;;13.35;7.20;;;;;;;9.36;63.27;98213.72;4903480;28;20294;-75
2023/02/20 07:49:47;;;;;;;12.90;6.70;;;;;;;9.45;63.37;98227.25;4905739;28;20038;-75
2023/02/20 07:52:13;;;;;;;10.57;6.18;;;;;;;9.69;62.79;98226.47;4895033;28;20031;-75
2023/02/20 07:54:38;;;;;;;14.27;6.50;;;;;;;9.57;62.80;98225.56;4875998;28;20436;-75
2023/02/20 07:57:03;;;;;;;15.98;6.97;;;;;;;9.65;63.05;98216.72;4910262;28;20038;-75
2023/02/20 07:59:29;;;;;;;12.10;6.90;;;;;;;9.75;62.80;98212.63;4909992;28;20105;-76
2023/02/20 08:01:54;;;;;;;10.73;6.03;;;;;;;9.77;62.69;98209.00;4872248;28;20023;-75
2023/02/20 08:04:20;;;;;;;11.30;6.40;;;;;;;9.89;62.68;98208.09;4923026;28;20041;-76
2023/02/20 08:06:45;;;;;;;12.82;6.65;;;;;;;9.94;62.45;98208.25;4913170;28;20122;-74
2023/02/20 08:09:10;;;;;;;14.73;6.45;;;;;;;9.88;63.00;98196.09;4894491;28;20031;-76
2023/02/20 08:11:36;;;;;;;10.68;5.68;;;;;;;9.89;61.83;98194.31;4880847;28;20100;-75
2023/02/20 08:14:03;;;;;;;11.00;6.30;;;;;;;10.10;61.97;98195.69;4893434;28;20027;-75
2023/02/20 08:16:28;;;;;;;11.88;6.07;;;;;;;9.91;62.12;98195.66;4896602;28;20121;-75
2023/02/20 08:18:54;;;;;;;13.65;6.82;;;;;;;9.99;62.66;98192.00;4906369;28;20117;-75
2023/02/20 08:21:19;;;;;;;11.65;6.80;;;;;;;9.83;62.89;98201.13;4903682;28;20274;-76
2023/02/20 08:23:45;;;;;;;10.32;6.28;;;;;;;9.92;63.14;98197.28;4892075;28;20785;-75
2023/02/20 08:26:10;;;;;;;11.30;6.10;;;;;;;10.08;62.44;98190.69;4886501;28;20030;-75
2023/02/20 08:28:35;;;;;;;11.02;5.80;;;;;;;10.29;61.93;98186.09;4910359;28;20840;-76
2023/02/20 08:31:01;;;;;;;12.90;6.05;;;;;;;10.38;62.00;98197.81;4912288;28;20026;-76
2023/02/20 08:33:26;;;;;;;12.02;6.85;;;;;;;10.46;61.67;98194.13;4909252;28;20676;-75
2023/02/20 08:35:54;;;;;;;9.93;6.25;;;;;;;10.42;61.92;98196.38;4907025;28;20114;-75
2023/02/20 08:38:32;;;;;;;12.73;6.35;;;;;;;10.37;61.71;98193.63;4877710;28;20023;-75
2023/02/20 08:40:57;;;;;;;12.50;6.07;;;;;;;10.45;61.52;98187.34;4880634;28;20976;-75
2023/02/20 08:43:23;;;;;;;11.70;6.25;;;;;;;10.33;61.99;98191.69;4904558;28;20418;-76
2023/02/20 08:45:49;;;;;;;12.25;6.65;;;;;;;10.42;61.84;98190.41;4894965;28;20088;-75
2023/02/20 08:48:14;;;;;;;10.63;6.10;;;;;;;10.57;61.69;98187.41;4888318;28;20171;-75
2023/02/20 08:50:39;;;;;;;13.02;6.53;;;;;;;10.51;62.09;98189.06;4907633;28;20034;-75
2023/02/20 08:53:05;;;;;;;10.13;5.75;;;;;;;10.45;61.67;98195.13;4874149;28;20027;-75
2023/02/20 08:55:30;;;;;;;17.10;7.38;;;;;;;10.58;61.79;98191.59;4911910;28;20041;-74
2023/02/20 08:57:56;;;;;;;10.00;6.43;;;;;;;10.54;61.75;98183.44;4875590;28;20645;-76
2023/02/20 09:00:21;;;;;;;14.77;6.50;;;;;;;10.80;61.56;98174.47;4911288;28;20046;-75
2023/02/20 09:02:47;;;;;;;13.27;6.65;;;;;;;10.78;61.03;98173.91;4879696;28;20034;-75
2023/02/20 09:05:13;;;;;;;13.45;7.05;;;;;;;10.90;60.82;98160.94;4903838;28;20239;-75
2023/02/20 09:07:38;;;;;;;14.52;6.18;;;;;;;10.92;60.93;98168.53;4880050;28;20038;-76
2023/02/20 09:10:05;;;;;;;11.52;6.80;;;;;;;11.27;60.25;98170.44;4896016;28;20571;-76
2023/02/20 09:12:31;;;;;;;10.15;6.18;;;;;;;11.21;60.36;98166.91;4879520;28;20661;-76
2023/02/20 09:14:59;;;;;;;15.82;6.72;;;;;;;11.18;60.65;98162.94;4877842;28;20026;-76
2023/02/20 09:17:27;;;;;;;13.63;7.15;;;;;;;11.28;60.61;98166.81;4880066;28;20023;-75
2023/02/20 09:19:53;;;;;;;15.27;6.97;;;;;;;11.26;60.43;98172.25;4895113;28;20053;-75
2023/02/20 09:22:23;;;;;;;13.32;6.32;;;;;;;11.84;59.61;98169.91;4910895;28;20128;-75
2023/02/20 09:24:48;;;;;;;14.23;8.07;;;;;;;11.90;59.17;98164.56;4879364;28;20245;-76
2023/02/20 09:27:14;;;;;;;14.95;8.05;;;;;;;11.87;59.03;98167.63;4910878;28;20311;-76
2023/02/20 09:29:41;;;;;;;13.43;7.93;;;;;;;11.99;58.70;98162.44;4911442;28;20030;-75
2023/02/20 09:32:07;;;;;;;14.13;8.77;;;;;;;11.76;59.72;98169.22;4905606;28;20052;-76
2023/02/20 09:34:32;;;;;;;17.05;8.30;;;;;;;11.59;60.29;98157.88;4888763;28;20105;-75
2023/02/20 09:36:58;;;;;;;16.73;9.05;;;;;;;11.66;60.00;98153.34;4878832;28;20034;-75
2023/02/20 09:39:23;;;;;;;15.57;7.97;;;;;;;11.78;59.24;98164.56;4872270;28;20037;-75
2023/02/20 09:42:04;;;;;;;16.48;8.60;;;;;;;11.92;59.79;98157.34;4912632;28;20022;-76
2023/02/20 09:44:42;;;;;;;15.65;8.00;;;;;;;12.02;59.33;98158.59;4894661;28;20894;-75
2023/02/20 09:47:23;;;;;;;14.57;7.75;;;;;;;12.35;57.86;98160.56;4910598;28;20771;-75
2023/02/20 09:49:49;;;;;;;14.43;7.80;;;;;;;12.28;57.78;98157.28;4908003;28;20054;-75
2023/02/20 09:52:15;;;;;;;13.02;7.65;;;;;;;12.28;57.99;98149.44;4891001;28;20418;-76
2023/02/20 09:54:47;;;;;;;12.70;7.15;;;;;;;12.51;57.62;98154.63;4877785;28;20029;-74
2023/02/20 09:57:17;;;;;;;18.25;8.13;;;;;;;12.55;57.70;98145.28;4877773;28;20027;-75
2023/02/20 09:59:57;;;;;;;14.25;8.07;;;;;;;12.76;57.01;98148.25;4894006;28;20938;-75
2023/02/20 10:02:45;;;;;;;17.55;8.63;;;;;;;12.76;57.36;98140.44;4870724;28;20074;-76
2023/02/20 10:05:17;;;;;;;18.02;8.10;;;;;;;12.65;57.98;98139.47;4894234;28;20034;-76
2023/02/20 10:07:42;;;;;;;13.80;7.00;;;;;;;12.20;59.11;98137.56;4909965;28;20037;-75
2023/02/20 10:10:26;;;;;;;15.32;7.13;;;;;;;13.00;57.34;98140.31;4896138;28;20898;-75
2023/02/20 10:13:01;;;;;;;13.73;7.30;;;;;;;13.08;56.99;98142.53;4907298;28;20131;-76
2023/02/20 10:15:58;;;;;;;14.52;7.03;;;;;;;13.65;56.04;98137.16;4891319;28;20042;-74
2023/02/20 10:18:39;;;;;;;13.93;6.65;;;;;;;13.70;55.74;98140.91;4907941;28;20743;-74
2023/02/20 10:21:19;;;;;;;14.00;6.63;;;;;;;14.03;54.09;98138.22;4894096;28;20796;-75
2023/02/20 10:23:47;;;;;;;14.85;7.00;;;;;;;13.95;53.88;98146.50;4876197;28;20030;-74
2023/02/20 10:26:28;;;;;;;11.77;5.95;;;;;;;14.28;53.69;98139.56;4910996;28;20405;-75
2023/02/20 10:28:55;;;;;;;14.60;6.60;;;;;;;14.22;53.74;98130.84;4909929;28;20026;-76
2023/02/20 10:31:52;;;;;;;14.25;6.22;;;;;;;14.31;52.99;98139.06;4891209;28;20732;-75
2023/02/20 10:34:22;;;;;;;13.00;6.40;;;;;;;14.40;53.06;98137.59;4884656;28;20065;-75
2023/02/20 10:36:53;;;;;;;11.35;5.70;;;;;;;14.21;53.25;98134.50;4893971;28;20129;-75
2023/02/20 10:39:20;;;;;;;13.65;6.63;;;;;;;14.02;53.59;98152.34;4893472;28;20736;-75
2023/02/20 10:42:02;;;;;;;10.40;5.35;;;;;;;14.32;53.06;98151.13;4876895;28;20377;-76
2023/02/20 10:44:32;;;;;;;11.93;6.15;;;;;;;14.28;52.14;98147.41;4888974;28;20118;-75
2023/02/20 10:47:09;;;;;;;12.50;5.50;;;;;;;14.23;52.02;98147.34;4877605;28;20033;-76
2023/02/20 10:49:42;;;;;;;10.15;4.97;;;;;;;14.30;51.98;98152.41;4873196;28;20100;-76
2023/02/20 10:52:13;;;;;;;9.88;5.50;;;;;;;14.19;52.18;98152.28;4891691;28;20030;-76
2023/02/20 10:54:43;;;;;;;9.20;5.22;;;;;;;14.07;52.08;98153.41;4911475;28;20491;-75
2023/02/20 10:57:25;;;;;;;13.48;6.22;;;;;;;14.42;51.23;98145.22;4910016;28;20041;-75
2023/02/20 10:59:58;;;;;;;12.35;6.47;;;;;;;14.57;51.49;98134.13;4903586;28;20038;-75
2023/02/20 11:02:26;;;;;;;11.50;6.20;;;;;;;14.65;50.97;98138.94;4877500;28;20030;-75
2023/02/20 11:05:03;;;;;;;12.20;6.22;;;;;;;14.88;50.45;98142.31;4905085;28;20048;-76
2023/02/20 11:07:28;;;;;;;11.43;6.30;;;;;;;14.80;50.48;98135.66;4874743;28;20042;-76
2023/02/20 11:09:54;;;;;;;8.50;5.07;;;;;;;14.67;50.62;98126.38;4882176;28;20026;-76
2023/02/20 11:12:40;;;;;;;11.48;6.20;;;;;;;14.89;50.93;98133.38;4906872;28;20030;-75
2023/02/20 11:15:12;;;;;;;9.95;5.57;;;;;;;14.65;50.93;98128.47;4910141;28;20042;-76
2023/02/20 11:17:38;;;;;;;9.07;5.70;;;;;;;14.61;50.22;98128.13;4875618;28;20197;-75
2023/02/20 11:20:06;;;;;;;9.73;6.32;;;;;;;14.61;49.54;98122.91;4873013;28;20276;-76
2023/02/20 11:22:38;;;;;;;13.75;6.05;;;;;;;14.89;49.64;98130.75;4869041;28;20230;-76
2023/02/20 11:25:32;;;;;;;12.80;6.00;;;;;;;14.90;48.28;98138.38;4897879;28;20192;-76
2023/02/20 11:28:09;;;;;;;9.50;5.88;;;;;;;15.01;49.11;98135.84;4880943;28;20375;-75
2023/02/20 11:30:37;;;;;;;9.63;6.10;;;;;;;14.94;49.36;98138.69;4887899;28;20914;-75
2023/02/20 11:33:05;;;;;;;9.10;5.40;;;;;;;15.10;49.11;98126.50;4877692;28;20221;-76
2023/02/20 11:35:33;;;;;;;10.75;5.20;;;;;;;15.27;48.12;98115.88;4891983;28;20639;-77
2023/02/20 11:38:17;;;;;;;11.38;5.72;;;;;;;16.05;46.36;98121.34;4873524;28;20209;-76
2023/02/20 11:40:45;;;;;;;9.07;5.15;;;;;;;16.47;45.81;98114.41;4911889;28;20643;-75
2023/02/20 11:43:18;;;;;;;10.05;5.47;;;;;;;16.75;45.83;98110.50;4902702;28;20271;-76
2023/02/20 11:45:47;;;;;;;9.65;5.10;;;;;;;16.91;45.82;98105.28;4885512;28;20711;-76
2023/02/20 11:48:18;;;;;;;8.35;4.85;;;;;;;17.16;43.60;98105.28;4903240;28;20210;-76
2023/02/20 11:50:47;;;;;;;7.18;5.28;;;;;;;17.44;43.44;98105.78;4888657;28;20651;-75
2023/02/20 11:53:18;;;;;;;11.70;5.72;;;;;;;17.88;43.83;98115.72;4905890;28;20270;-75
2023/02/20 11:55:44;;;;;;;10.85;6.03;;;;;;;17.91;42.90;98106.50;4903351;28;20269;-75
2023/02/20 11:58:20;;;;;;;7.20;4.97;;;;;;;18.35;41.66;98087.31;4885369;28;20261;-75
2023/02/20 12:00:48;;;;;;;8.52;5.35;;;;;;;18.57;41.30;98088.78;4885176;28;20209;-76
2023/02/20 12:03:20;;;;;;;10.95;5.85;;;;;;;18.80;40.81;98082.81;4870473;28;20202;-76